sensor_id;sensor_type;location;lat;lon;timestamp;P1;durP1;ratioP1;P2;durP2;ratioP2
5014;SDS011;2526;51.060;4.228;2023-02-19T00:01:17;10.50;;;4.38;;
5014;SDS011;2526;51.060;4.228;2023-02-19T00:03:48;8.68;;;4.55;;
5014;SDS011;2526;51.060;4.228;2023-02-19T00:06:14;6.40;;;3.67;;
5014;SDS011;2526;51.060;4.228;2023-02-19T00:08:39;4.45;;;3.75;;
5014;SDS011;2526;51.060;4.228;2023-02-19T00:11:06;10.00;;;4.03;;
5014;SDS011;2526;51.060;4.228;2023-02-19T00:13:39;8.70;;;3.97;;
5014;SDS011;2526;51.060;4.228;2023-02-19T00:16:08;7.00;;;3.78;;
5014;SDS011;2526;51.060;4.228;2023-02-19T00:18:34;16.30;;;5.85;;
5014;SDS011;2526;51.060;4.228;2023-02-19T00:21:00;8.15;;;5.15;;
5014;SDS011;2526;51.060;4.228;2023-02-19T00:23:25;8.77;;;5.70;;
5014;SDS011;2526;51.060;4.228;2023-02-19T00:25:52;9.30;;;5.55;;
5014;SDS011;2526;51.060;4.228;2023-02-19T00:28:18;6.55;;;4.95;;
5014;SDS011;2526;51.060;4.228;2023-02-19T00:30:43;11.43;;;5.82;;
5014;SDS011;2526;51.060;4.228;2023-02-19T00:33:08;11.45;;;5.53;;
5014;SDS011;2526;51.060;4.228;2023-02-19T00:35:34;9.73;;;5.85;;
5014;SDS011;2526;51.060;4.228;2023-02-19T00:37:59;15.43;;;7.40;;
5014;SDS011;2526;51.060;4.228;2023-02-19T00:40:25;16.02;;;7.70;;
5014;SDS011;2526;51.060;4.228;2023-02-19T00:42:51;9.13;;;4.93;;
5014;SDS011;2526;51.060;4.228;2023-02-19T00:45:16;10.43;;;6.13;;
5014;SDS011;2526;51.060;4.228;2023-02-19T00:47:42;8.73;;;5.68;;
5014;SDS011;2526;51.060;4.228;2023-02-19T00:50:07;9.18;;;5.18;;
5014;SDS011;2526;51.060;4.228;2023-02-19T00:52:33;7.50;;;4.63;;
5014;SDS011;2526;51.060;4.228;2023-02-19T00:54:58;7.22;;;5.07;;
5014;SDS011;2526;51.060;4.228;2023-02-19T00:57:24;8.77;;;5.57;;
5014;SDS011;2526;51.060;4.228;2023-02-19T00:59:50;10.13;;;6.53;;
5014;SDS011;2526;51.060;4.228;2023-02-19T01:02:16;9.98;;;5.22;;
5014;SDS011;2526;51.060;4.228;2023-02-19T01:04:41;9.88;;;6.32;;
5014;SDS011;2526;51.060;4.228;2023-02-19T01:07:07;21.73;;;4.97;;
5014;SDS011;2526;51.060;4.228;2023-02-19T01:09:32;10.45;;;4.97;;
5014;SDS011;2526;51.060;4.228;2023-02-19T01:11:58;9.55;;;4.30;;
5014;SDS011;2526;51.060;4.228;2023-02-19T01:14:23;9.38;;;5.28;;
5014;SDS011;2526;51.060;4.228;2023-02-19T01:16:49;6.38;;;3.42;;
5014;SDS011;2526;51.060;4.228;2023-02-19T01:19:14;7.82;;;4.00;;
5014;SDS011;2526;51.060;4.228;2023-02-19T01:21:40;6.72;;;2.15;;
5014;SDS011;2526;51.060;4.228;2023-02-19T01:24:05;9.30;;;3.63;;
5014;SDS011;2526;51.060;4.228;2023-02-19T01:26:31;9.32;;;3.20;;
5014;SDS011;2526;51.060;4.228;2023-02-19T01:28:58;9.80;;;4.18;;
5014;SDS011;2526;51.060;4.228;2023-02-19T01:31:24;9.27;;;2.28;;
5014;SDS011;2526;51.060;4.228;2023-02-19T01:33:51;5.75;;;2.65;;
5014;SDS011;2526;51.060;4.228;2023-02-19T01:36:17;7.05;;;3.08;;
5014;SDS011;2526;51.060;4.228;2023-02-19T01:38:43;2.22;;;1.58;;
5014;SDS011;2526;51.060;4.228;2023-02-19T01:41:09;6.32;;;2.42;;
5014;SDS011;2526;51.060;4.228;2023-02-19T01:43:54;3.55;;;2.63;;
5014;SDS011;2526;51.060;4.228;2023-02-19T01:46:19;8.10;;;3.45;;
5014;SDS011;2526;51.060;4.228;2023-02-19T01:48:45;9.55;;;2.60;;
5014;SDS011;2526;51.060;4.228;2023-02-19T01:51:12;4.55;;;2.90;;
5014;SDS011;2526;51.060;4.228;2023-02-19T01:53:40;4.25;;;2.75;;
5014;SDS011;2526;51.060;4.228;2023-02-19T01:56:07;10.18;;;2.05;;
5014;SDS011;2526;51.060;4.228;2023-02-19T01:58:33;2.80;;;1.58;;
5014;SDS011;2526;51.060;4.228;2023-02-19T02:00:59;5.90;;;2.47;;
5014;SDS011;2526;51.060;4.228;2023-02-19T02:03:25;2.65;;;1.55;;
5014;SDS011;2526;51.060;4.228;2023-02-19T02:08:31;9.82;;;2.72;;
5014;SDS011;2526;51.060;4.228;2023-02-19T02:11:16;6.65;;;2.47;;
5014;SDS011;2526;51.060;4.228;2023-02-19T02:13:41;5.63;;;2.22;;
5014;SDS011;2526;51.060;4.228;2023-02-19T02:21:26;10.32;;;1.45;;
5014;SDS011;2526;51.060;4.228;2023-02-19T02:29:15;5.57;;;1.42;;
5014;SDS011;2526;51.060;4.228;2023-02-19T02:31:48;10.60;;;2.60;;
5014;SDS011;2526;51.060;4.228;2023-02-19T02:34:18;9.43;;;1.90;;
5014;SDS011;2526;51.060;4.228;2023-02-19T02:36:46;2.97;;;1.63;;
5014;SDS011;2526;51.060;4.228;2023-02-19T02:39:14;10.50;;;2.15;;
5014;SDS011;2526;51.060;4.228;2023-02-19T02:42:02;5.90;;;1.92;;
5014;SDS011;2526;51.060;4.228;2023-02-19T02:44:45;6.20;;;2.28;;
5014;SDS011;2526;51.060;4.228;2023-02-19T02:47:32;4.00;;;1.55;;
5014;SDS011;2526;51.060;4.228;2023-02-19T02:50:11;11.68;;;2.15;;
5014;SDS011;2526;51.060;4.228;2023-02-19T02:52:37;1.50;;;1.40;;
5014;SDS011;2526;51.060;4.228;2023-02-19T02:55:23;7.13;;;2.05;;
5014;SDS011;2526;51.060;4.228;2023-02-19T02:57:49;3.75;;;1.77;;
5014;SDS011;2526;51.060;4.228;2023-02-19T03:00:15;4.30;;;2.10;;
5014;SDS011;2526;51.060;4.228;2023-02-19T03:02:41;4.70;;;2.17;;
5014;SDS011;2526;51.060;4.228;2023-02-19T03:05:20;3.90;;;1.38;;
5014;SDS011;2526;51.060;4.228;2023-02-19T03:08:07;3.90;;;2.03;;
5014;SDS011;2526;51.060;4.228;2023-02-19T03:10:40;3.00;;;1.63;;
5014;SDS011;2526;51.060;4.228;2023-02-19T03:13:09;7.30;;;2.55;;
5014;SDS011;2526;51.060;4.228;2023-02-19T03:15:56;3.95;;;1.35;;
5014;SDS011;2526;51.060;4.228;2023-02-19T03:18:41;7.25;;;1.55;;
5014;SDS011;2526;51.060;4.228;2023-02-19T03:21:25;6.03;;;2.13;;
5014;SDS011;2526;51.060;4.228;2023-02-19T03:23:52;3.22;;;1.40;;
5014;SDS011;2526;51.060;4.228;2023-02-19T03:29:02;4.80;;;1.85;;
5014;SDS011;2526;51.060;4.228;2023-02-19T03:34:14;3.63;;;2.15;;
5014;SDS011;2526;51.060;4.228;2023-02-19T03:36:50;14.18;;;1.55;;
5014;SDS011;2526;51.060;4.228;2023-02-19T03:39:19;7.30;;;1.83;;
5014;SDS011;2526;51.060;4.228;2023-02-19T03:41:57;8.32;;;1.85;;
5014;SDS011;2526;51.060;4.228;2023-02-19T03:44:26;10.35;;;1.67;;
5014;SDS011;2526;51.060;4.228;2023-02-19T03:52:07;8.13;;;2.13;;
5014;SDS011;2526;51.060;4.228;2023-02-19T03:54:43;5.57;;;1.38;;
5014;SDS011;2526;51.060;4.228;2023-02-19T03:59:45;7.10;;;1.67;;
5014;SDS011;2526;51.060;4.228;2023-02-19T04:02:14;6.72;;;1.42;;
5014;SDS011;2526;51.060;4.228;2023-02-19T04:04:44;4.75;;;1.75;;
5014;SDS011;2526;51.060;4.228;2023-02-19T04:07:11;4.38;;;1.88;;
5014;SDS011;2526;51.060;4.228;2023-02-19T04:09:39;4.85;;;2.03;;
5014;SDS011;2526;51.060;4.228;2023-02-19T04:12:05;9.77;;;1.73;;
5014;SDS011;2526;51.060;4.228;2023-02-19T04:14:35;4.15;;;2.35;;
5014;SDS011;2526;51.060;4.228;2023-02-19T04:17:11;5.47;;;1.83;;
5014;SDS011;2526;51.060;4.228;2023-02-19T04:19:38;5.38;;;2.10;;
5014;SDS011;2526;51.060;4.228;2023-02-19T04:22:05;5.13;;;2.30;;
5014;SDS011;2526;51.060;4.228;2023-02-19T04:24:32;6.00;;;3.00;;
5014;SDS011;2526;51.060;4.228;2023-02-19T04:27:00;8.13;;;2.60;;
5014;SDS011;2526;51.060;4.228;2023-02-19T04:29:26;6.78;;;1.60;;
5014;SDS011;2526;51.060;4.228;2023-02-19T04:31:51;5.60;;;0.95;;
5014;SDS011;2526;51.060;4.228;2023-02-19T04:34:17;5.78;;;1.90;;
5014;SDS011;2526;51.060;4.228;2023-02-19T04:36:42;10.18;;;1.02;;
5014;SDS011;2526;51.060;4.228;2023-02-19T04:39:07;6.80;;;2.05;;
5014;SDS011;2526;51.060;4.228;2023-02-19T04:41:33;10.57;;;2.05;;
5014;SDS011;2526;51.060;4.228;2023-02-19T04:43:58;8.57;;;1.80;;
5014;SDS011;2526;51.060;4.228;2023-02-19T04:46:24;14.52;;;3.58;;
5014;SDS011;2526;51.060;4.228;2023-02-19T04:48:49;4.70;;;1.73;;
5014;SDS011;2526;51.060;4.228;2023-02-19T04:51:15;2.80;;;1.45;;
5014;SDS011;2526;51.060;4.228;2023-02-19T04:53:40;9.73;;;2.40;;
5014;SDS011;2526;51.060;4.228;2023-02-19T04:56:16;14.40;;;2.33;;
5014;SDS011;2526;51.060;4.228;2023-02-19T04:58:42;5.10;;;1.88;;
5014;SDS011;2526;51.060;4.228;2023-02-19T05:01:08;7.43;;;2.25;;
5014;SDS011;2526;51.060;4.228;2023-02-19T05:03:33;10.50;;;2.00;;
5014;SDS011;2526;51.060;4.228;2023-02-19T05:06:06;3.88;;;1.95;;
5014;SDS011;2526;51.060;4.228;2023-02-19T05:08:32;4.45;;;1.60;;
5014;SDS011;2526;51.060;4.228;2023-02-19T05:10:59;7.55;;;1.70;;
5014;SDS011;2526;51.060;4.228;2023-02-19T05:13:24;3.72;;;1.80;;
5014;SDS011;2526;51.060;4.228;2023-02-19T05:16:01;5.65;;;1.52;;
5014;SDS011;2526;51.060;4.228;2023-02-19T05:18:27;7.68;;;1.35;;
5014;SDS011;2526;51.060;4.228;2023-02-19T05:20:53;5.80;;;1.60;;
5014;SDS011;2526;51.060;4.228;2023-02-19T05:23:19;13.65;;;3.60;;
5014;SDS011;2526;51.060;4.228;2023-02-19T05:25:45;5.13;;;1.42;;
5014;SDS011;2526;51.060;4.228;2023-02-19T05:28:10;10.35;;;2.67;;
5014;SDS011;2526;51.060;4.228;2023-02-19T05:30:51;7.53;;;1.98;;
5014;SDS011;2526;51.060;4.228;2023-02-19T05:33:18;11.27;;;1.77;;
5014;SDS011;2526;51.060;4.228;2023-02-19T05:35:44;9.55;;;1.67;;
5014;SDS011;2526;51.060;4.228;2023-02-19T05:38:10;11.35;;;2.58;;
5014;SDS011;2526;51.060;4.228;2023-02-19T05:40:36;6.63;;;2.42;;
5014;SDS011;2526;51.060;4.228;2023-02-19T05:43:02;7.85;;;2.03;;
5014;SDS011;2526;51.060;4.228;2023-02-19T05:45:27;5.75;;;1.75;;
5014;SDS011;2526;51.060;4.228;2023-02-19T05:47:53;6.68;;;1.98;;
5014;SDS011;2526;51.060;4.228;2023-02-19T05:50:18;2.65;;;1.88;;
5014;SDS011;2526;51.060;4.228;2023-02-19T05:52:43;7.40;;;2.60;;
5014;SDS011;2526;51.060;4.228;2023-02-19T05:55:09;6.68;;;2.25;;
5014;SDS011;2526;51.060;4.228;2023-02-19T05:57:39;5.70;;;1.52;;
5014;SDS011;2526;51.060;4.228;2023-02-19T06:00:04;11.20;;;2.78;;
5014;SDS011;2526;51.060;4.228;2023-02-19T06:02:30;5.47;;;1.48;;
5014;SDS011;2526;51.060;4.228;2023-02-19T06:04:56;6.70;;;2.15;;
5014;SDS011;2526;51.060;4.228;2023-02-19T06:07:21;5.93;;;1.90;;
5014;SDS011;2526;51.060;4.228;2023-02-19T06:09:49;6.95;;;2.25;;
5014;SDS011;2526;51.060;4.228;2023-02-19T06:12:14;8.60;;;2.63;;
5014;SDS011;2526;51.060;4.228;2023-02-19T06:14:40;14.50;;;1.42;;
5014;SDS011;2526;51.060;4.228;2023-02-19T06:17:05;8.52;;;2.38;;
5014;SDS011;2526;51.060;4.228;2023-02-19T06:19:31;10.30;;;2.85;;
5014;SDS011;2526;51.060;4.228;2023-02-19T06:21:56;5.93;;;2.45;;
5014;SDS011;2526;51.060;4.228;2023-02-19T06:24:21;11.63;;;1.90;;
5014;SDS011;2526;51.060;4.228;2023-02-19T06:26:47;7.20;;;1.80;;
5014;SDS011;2526;51.060;4.228;2023-02-19T06:29:12;3.92;;;1.30;;
5014;SDS011;2526;51.060;4.228;2023-02-19T06:31:38;9.60;;;2.25;;
5014;SDS011;2526;51.060;4.228;2023-02-19T06:34:03;8.77;;;1.90;;
5014;SDS011;2526;51.060;4.228;2023-02-19T06:36:29;6.22;;;1.95;;
5014;SDS011;2526;51.060;4.228;2023-02-19T06:38:58;7.25;;;1.45;;
5014;SDS011;2526;51.060;4.228;2023-02-19T06:41:23;5.10;;;1.00;;
5014;SDS011;2526;51.060;4.228;2023-02-19T06:43:49;5.13;;;2.22;;
5014;SDS011;2526;51.060;4.228;2023-02-19T06:46:14;7.93;;;1.95;;
5014;SDS011;2526;51.060;4.228;2023-02-19T06:48:40;4.93;;;1.25;;
5014;SDS011;2526;51.060;4.228;2023-02-19T06:51:06;3.70;;;2.08;;
5014;SDS011;2526;51.060;4.228;2023-02-19T06:53:32;6.57;;;1.90;;
5014;SDS011;2526;51.060;4.228;2023-02-19T06:55:58;9.73;;;2.88;;
5014;SDS011;2526;51.060;4.228;2023-02-19T06:58:24;8.00;;;2.78;;
5014;SDS011;2526;51.060;4.228;2023-02-19T07:00:51;6.30;;;1.70;;
5014;SDS011;2526;51.060;4.228;2023-02-19T07:03:17;8.20;;;2.00;;
5014;SDS011;2526;51.060;4.228;2023-02-19T07:05:42;3.63;;;1.85;;
5014;SDS011;2526;51.060;4.228;2023-02-19T07:08:08;6.70;;;1.83;;
5014;SDS011;2526;51.060;4.228;2023-02-19T07:10:33;5.18;;;1.48;;
5014;SDS011;2526;51.060;4.228;2023-02-19T07:12:59;4.28;;;1.50;;
5014;SDS011;2526;51.060;4.228;2023-02-19T07:15:24;11.32;;;2.05;;
5014;SDS011;2526;51.060;4.228;2023-02-19T07:17:50;3.42;;;1.58;;
5014;SDS011;2526;51.060;4.228;2023-02-19T07:20:15;9.48;;;1.85;;
5014;SDS011;2526;51.060;4.228;2023-02-19T07:22:41;1.08;;;0.98;;
5014;SDS011;2526;51.060;4.228;2023-02-19T07:25:06;4.38;;;1.67;;
5014;SDS011;2526;51.060;4.228;2023-02-19T07:27:32;10.50;;;2.15;;
5014;SDS011;2526;51.060;4.228;2023-02-19T07:29:58;4.93;;;1.58;;
5014;SDS011;2526;51.060;4.228;2023-02-19T07:32:23;7.20;;;1.67;;
5014;SDS011;2526;51.060;4.228;2023-02-19T07:34:49;4.95;;;1.75;;
5014;SDS011;2526;51.060;4.228;2023-02-19T07:37:14;7.38;;;1.52;;
5014;SDS011;2526;51.060;4.228;2023-02-19T07:39:40;14.68;;;2.22;;
5014;SDS011;2526;51.060;4.228;2023-02-19T07:42:05;4.47;;;1.05;;
5014;SDS011;2526;51.060;4.228;2023-02-19T07:44:30;5.28;;;2.33;;
5014;SDS011;2526;51.060;4.228;2023-02-19T07:46:56;10.77;;;2.17;;
5014;SDS011;2526;51.060;4.228;2023-02-19T07:49:21;5.47;;;2.30;;
5014;SDS011;2526;51.060;4.228;2023-02-19T07:51:47;9.27;;;2.08;;
5014;SDS011;2526;51.060;4.228;2023-02-19T07:54:12;3.35;;;1.63;;
5014;SDS011;2526;51.060;4.228;2023-02-19T07:56:38;8.65;;;1.92;;
5014;SDS011;2526;51.060;4.228;2023-02-19T07:59:03;4.22;;;1.60;;
5014;SDS011;2526;51.060;4.228;2023-02-19T08:01:29;9.95;;;2.38;;
5014;SDS011;2526;51.060;4.228;2023-02-19T08:04:13;9.60;;;1.73;;
5014;SDS011;2526;51.060;4.228;2023-02-19T08:06:39;4.20;;;1.75;;
5014;SDS011;2526;51.060;4.228;2023-02-19T08:09:05;9.38;;;1.88;;
5014;SDS011;2526;51.060;4.228;2023-02-19T08:11:30;3.60;;;2.03;;
5014;SDS011;2526;51.060;4.228;2023-02-19T08:14:15;10.43;;;1.20;;
5014;SDS011;2526;51.060;4.228;2023-02-19T08:16:47;14.15;;;2.08;;
5014;SDS011;2526;51.060;4.228;2023-02-19T08:19:12;7.95;;;1.80;;
5014;SDS011;2526;51.060;4.228;2023-02-19T08:21:37;9.27;;;1.50;;
5014;SDS011;2526;51.060;4.228;2023-02-19T08:24:03;12.07;;;1.95;;
5014;SDS011;2526;51.060;4.228;2023-02-19T08:26:29;9.48;;;1.88;;
5014;SDS011;2526;51.060;4.228;2023-02-19T08:28:54;8.45;;;1.58;;
5014;SDS011;2526;51.060;4.228;2023-02-19T08:31:19;5.25;;;1.90;;
5014;SDS011;2526;51.060;4.228;2023-02-19T08:33:45;5.00;;;2.38;;
5014;SDS011;2526;51.060;4.228;2023-02-19T08:36:10;9.65;;;1.42;;
5014;SDS011;2526;51.060;4.228;2023-02-19T08:38:36;3.20;;;1.90;;
5014;SDS011;2526;51.060;4.228;2023-02-19T08:41:03;9.73;;;2.25;;
5014;SDS011;2526;51.060;4.228;2023-02-19T08:43:28;4.53;;;1.67;;
5014;SDS011;2526;51.060;4.228;2023-02-19T08:45:54;7.50;;;1.70;;
5014;SDS011;2526;51.060;4.228;2023-02-19T08:48:19;3.75;;;1.88;;
5014;SDS011;2526;51.060;4.228;2023-02-19T08:50:46;9.38;;;2.20;;
5014;SDS011;2526;51.060;4.228;2023-02-19T08:53:16;5.05;;;1.38;;
5014;SDS011;2526;51.060;4.228;2023-02-19T08:55:42;10.48;;;1.98;;
5014;SDS011;2526;51.060;4.228;2023-02-19T08:58:07;4.22;;;1.63;;
5014;SDS011;2526;51.060;4.228;2023-02-19T09:00:34;12.98;;;2.38;;
5014;SDS011;2526;51.060;4.228;2023-02-19T09:03:00;7.25;;;1.58;;
5014;SDS011;2526;51.060;4.228;2023-02-19T09:05:25;2.70;;;1.30;;
5014;SDS011;2526;51.060;4.228;2023-02-19T09:07:51;5.40;;;1.60;;
5014;SDS011;2526;51.060;4.228;2023-02-19T09:10:17;6.28;;;1.98;;
5014;SDS011;2526;51.060;4.228;2023-02-19T09:12:42;7.95;;;1.55;;
5014;SDS011;2526;51.060;4.228;2023-02-19T09:15:08;13.52;;;2.67;;
5014;SDS011;2526;51.060;4.228;2023-02-19T09:17:33;2.17;;;1.35;;
5014;SDS011;2526;51.060;4.228;2023-02-19T09:19:59;8.73;;;2.25;;
5014;SDS011;2526;51.060;4.228;2023-02-19T09:22:24;10.07;;;1.98;;
5014;SDS011;2526;51.060;4.228;2023-02-19T09:24:50;4.35;;;1.75;;
5014;SDS011;2526;51.060;4.228;2023-02-19T09:27:16;3.20;;;1.45;;
5014;SDS011;2526;51.060;4.228;2023-02-19T09:29:42;10.85;;;1.70;;
5014;SDS011;2526;51.060;4.228;2023-02-19T09:32:07;8.25;;;2.90;;
5014;SDS011;2526;51.060;4.228;2023-02-19T09:34:32;4.07;;;1.92;;
5014;SDS011;2526;51.060;4.228;2023-02-19T09:36:58;7.32;;;2.50;;
5014;SDS011;2526;51.060;4.228;2023-02-19T09:39:23;2.95;;;1.67;;
5014;SDS011;2526;51.060;4.228;2023-02-19T09:46:52;5.97;;;2.08;;
5014;SDS011;2526;51.060;4.228;2023-02-19T09:49:19;5.38;;;1.55;;
5014;SDS011;2526;51.060;4.228;2023-02-19T09:51:47;3.38;;;1.35;;
5014;SDS011;2526;51.060;4.228;2023-02-19T09:54:19;15.65;;;2.85;;
5014;SDS011;2526;51.060;4.228;2023-02-19T09:56:46;7.78;;;2.25;;
5014;SDS011;2526;51.060;4.228;2023-02-19T09:59:15;8.38;;;1.92;;
5014;SDS011;2526;51.060;4.228;2023-02-19T10:01:42;4.18;;;1.65;;
5014;SDS011;2526;51.060;4.228;2023-02-19T10:04:08;5.30;;;2.38;;
5014;SDS011;2526;51.060;4.228;2023-02-19T10:06:34;4.18;;;1.90;;
5014;SDS011;2526;51.060;4.228;2023-02-19T10:11:34;7.93;;;2.60;;
5014;SDS011;2526;51.060;4.228;2023-02-19T10:14:04;9.77;;;2.72;;
5014;SDS011;2526;51.060;4.228;2023-02-19T10:16:33;4.13;;;2.08;;
5014;SDS011;2526;51.060;4.228;2023-02-19T10:19:00;2.83;;;1.95;;
5014;SDS011;2526;51.060;4.228;2023-02-19T10:21:25;4.57;;;1.83;;
5014;SDS011;2526;51.060;4.228;2023-02-19T10:23:56;8.73;;;3.08;;
5014;SDS011;2526;51.060;4.228;2023-02-19T10:26:23;4.78;;;2.72;;
5014;SDS011;2526;51.060;4.228;2023-02-19T10:28:49;11.88;;;3.60;;
5014;SDS011;2526;51.060;4.228;2023-02-19T10:31:18;6.80;;;2.58;;
5014;SDS011;2526;51.060;4.228;2023-02-19T10:33:51;4.38;;;2.47;;
5014;SDS011;2526;51.060;4.228;2023-02-19T10:36:21;8.15;;;3.72;;
5014;SDS011;2526;51.060;4.228;2023-02-19T10:38:48;6.95;;;2.55;;
5014;SDS011;2526;51.060;4.228;2023-02-19T10:41:14;5.35;;;3.83;;
5014;SDS011;2526;51.060;4.228;2023-02-19T10:43:55;15.75;;;3.95;;
5014;SDS011;2526;51.060;4.228;2023-02-19T10:46:22;12.48;;;4.90;;
5014;SDS011;2526;51.060;4.228;2023-02-19T10:48:54;9.10;;;5.57;;
5014;SDS011;2526;51.060;4.228;2023-02-19T10:51:26;4.85;;;3.40;;
5014;SDS011;2526;51.060;4.228;2023-02-19T10:56:39;13.45;;;3.50;;
5014;SDS011;2526;51.060;4.228;2023-02-19T11:04:18;17.13;;;4.85;;
5014;SDS011;2526;51.060;4.228;2023-02-19T11:06:44;7.00;;;4.40;;
5014;SDS011;2526;51.060;4.228;2023-02-19T11:11:48;16.30;;;4.72;;
5014;SDS011;2526;51.060;4.228;2023-02-19T11:14:15;5.85;;;3.00;;
5014;SDS011;2526;51.060;4.228;2023-02-19T11:16:46;7.25;;;4.15;;
5014;SDS011;2526;51.060;4.228;2023-02-19T11:19:23;4.00;;;2.28;;
5014;SDS011;2526;51.060;4.228;2023-02-19T11:21:49;10.65;;;2.33;;
5014;SDS011;2526;51.060;4.228;2023-02-19T11:26:55;8.43;;;2.20;;
5014;SDS011;2526;51.060;4.228;2023-02-19T11:29:21;5.72;;;2.10;;
5014;SDS011;2526;51.060;4.228;2023-02-19T11:31:47;4.70;;;2.25;;
5014;SDS011;2526;51.060;4.228;2023-02-19T11:36:39;2.80;;;1.75;;
5014;SDS011;2526;51.060;4.228;2023-02-19T11:52:26;8.57;;;2.20;;
5014;SDS011;2526;51.060;4.228;2023-02-19T11:54:59;2.78;;;1.73;;
5014;SDS011;2526;51.060;4.228;2023-02-19T11:57:40;6.22;;;1.83;;
5014;SDS011;2526;51.060;4.228;2023-02-19T12:00:26;9.20;;;2.35;;
5014;SDS011;2526;51.060;4.228;2023-02-19T12:08:04;6.15;;;1.92;;
5014;SDS011;2526;51.060;4.228;2023-02-19T12:10:38;9.45;;;2.25;;
5014;SDS011;2526;51.060;4.228;2023-02-19T12:21:04;3.45;;;1.75;;
5014;SDS011;2526;51.060;4.228;2023-02-19T12:36:44;1.38;;;1.13;;
5014;SDS011;2526;51.060;4.228;2023-02-19T12:41:58;9.40;;;2.17;;
5014;SDS011;2526;51.060;4.228;2023-02-19T12:44:34;3.50;;;1.30;;
5014;SDS011;2526;51.060;4.228;2023-02-19T12:47:01;2.58;;;1.48;;
5014;SDS011;2526;51.060;4.228;2023-02-19T12:52:05;4.28;;;2.50;;
5014;SDS011;2526;51.060;4.228;2023-02-19T12:54:33;4.07;;;1.92;;
5014;SDS011;2526;51.060;4.228;2023-02-19T12:57:08;2.53;;;1.50;;
5014;SDS011;2526;51.060;4.228;2023-02-19T12:59:45;5.35;;;2.03;;
5014;SDS011;2526;51.060;4.228;2023-02-19T13:02:29;3.30;;;2.13;;
5014;SDS011;2526;51.060;4.228;2023-02-19T13:05:01;4.07;;;1.73;;
5014;SDS011;2526;51.060;4.228;2023-02-19T13:12:38;1.83;;;1.50;;
5014;SDS011;2526;51.060;4.228;2023-02-19T13:17:46;7.57;;;1.58;;
5014;SDS011;2526;51.060;4.228;2023-02-19T13:22:59;7.10;;;1.48;;
5014;SDS011;2526;51.060;4.228;2023-02-19T13:25:53;2.88;;;1.20;;
5014;SDS011;2526;51.060;4.228;2023-02-19T13:30:59;2.08;;;1.00;;
5014;SDS011;2526;51.060;4.228;2023-02-19T13:33:36;3.65;;;1.38;;
5014;SDS011;2526;51.060;4.228;2023-02-19T13:38:31;3.53;;;1.30;;
5014;SDS011;2526;51.060;4.228;2023-02-19T13:40:58;5.70;;;1.45;;
5014;SDS011;2526;51.060;4.228;2023-02-19T13:43:28;3.50;;;1.60;;
5014;SDS011;2526;51.060;4.228;2023-02-19T13:46:05;6.38;;;1.13;;
5014;SDS011;2526;51.060;4.228;2023-02-19T13:48:32;2.83;;;0.93;;
5014;SDS011;2526;51.060;4.228;2023-02-19T14:12:17;1.45;;;0.95;;
5014;SDS011;2526;51.060;4.228;2023-02-19T14:14:46;0.70;;;0.55;;
5014;SDS011;2526;51.060;4.228;2023-02-19T14:19:49;4.28;;;0.88;;
5014;SDS011;2526;51.060;4.228;2023-02-19T14:24:59;0.82;;;0.57;;
5014;SDS011;2526;51.060;4.228;2023-02-19T14:27:25;1.75;;;0.80;;
5014;SDS011;2526;51.060;4.228;2023-02-19T14:29:51;5.97;;;1.45;;
5014;SDS011;2526;51.060;4.228;2023-02-19T14:32:17;0.73;;;0.63;;
5014;SDS011;2526;51.060;4.228;2023-02-19T14:34:43;2.72;;;1.13;;
5014;SDS011;2526;51.060;4.228;2023-02-19T14:37:16;1.75;;;1.15;;
5014;SDS011;2526;51.060;4.228;2023-02-19T14:39:43;4.55;;;2.47;;
5014;SDS011;2526;51.060;4.228;2023-02-19T14:42:14;2.10;;;1.50;;
5014;SDS011;2526;51.060;4.228;2023-02-19T14:44:48;2.58;;;2.10;;
5014;SDS011;2526;51.060;4.228;2023-02-19T14:47:15;10.73;;;3.45;;
5014;SDS011;2526;51.060;4.228;2023-02-19T14:49:46;3.92;;;2.55;;
5014;SDS011;2526;51.060;4.228;2023-02-19T14:52:22;4.20;;;2.88;;
5014;SDS011;2526;51.060;4.228;2023-02-19T14:57:31;6.70;;;2.17;;
5014;SDS011;2526;51.060;4.228;2023-02-19T14:59:58;5.72;;;2.53;;
5014;SDS011;2526;51.060;4.228;2023-02-19T15:02:25;4.22;;;1.92;;
5014;SDS011;2526;51.060;4.228;2023-02-19T15:04:51;4.90;;;2.13;;
5014;SDS011;2526;51.060;4.228;2023-02-19T15:09:52;4.28;;;2.25;;
5014;SDS011;2526;51.060;4.228;2023-02-19T15:12:24;5.32;;;1.52;;
5014;SDS011;2526;51.060;4.228;2023-02-19T15:14:52;5.20;;;1.48;;
5014;SDS011;2526;51.060;4.228;2023-02-19T15:17:24;11.13;;;2.70;;
5014;SDS011;2526;51.060;4.228;2023-02-19T15:19:50;2.78;;;1.92;;
5014;SDS011;2526;51.060;4.228;2023-02-19T15:22:19;3.22;;;2.03;;
5014;SDS011;2526;51.060;4.228;2023-02-19T15:24:45;5.82;;;3.00;;
5014;SDS011;2526;51.060;4.228;2023-02-19T15:27:15;6.65;;;2.53;;
5014;SDS011;2526;51.060;4.228;2023-02-19T15:29:43;5.72;;;2.45;;
5014;SDS011;2526;51.060;4.228;2023-02-19T15:32:14;3.00;;;1.95;;
5014;SDS011;2526;51.060;4.228;2023-02-19T15:34:40;2.38;;;1.80;;
5014;SDS011;2526;51.060;4.228;2023-02-19T15:37:06;3.67;;;2.38;;
5014;SDS011;2526;51.060;4.228;2023-02-19T15:39:33;4.32;;;2.85;;
5014;SDS011;2526;51.060;4.228;2023-02-19T15:42:00;6.93;;;1.83;;
5014;SDS011;2526;51.060;4.228;2023-02-19T15:46:52;2.05;;;1.80;;
5014;SDS011;2526;51.060;4.228;2023-02-19T15:49:21;3.47;;;2.05;;
5014;SDS011;2526;51.060;4.228;2023-02-19T15:51:52;7.35;;;3.42;;
5014;SDS011;2526;51.060;4.228;2023-02-19T15:54:26;3.97;;;2.97;;
5014;SDS011;2526;51.060;4.228;2023-02-19T15:56:53;10.68;;;3.63;;
5014;SDS011;2526;51.060;4.228;2023-02-19T15:59:22;10.60;;;2.75;;
5014;SDS011;2526;51.060;4.228;2023-02-19T16:01:49;8.80;;;2.55;;
5014;SDS011;2526;51.060;4.228;2023-02-19T16:04:15;3.92;;;1.60;;
5014;SDS011;2526;51.060;4.228;2023-02-19T16:06:57;7.07;;;2.25;;
5014;SDS011;2526;51.060;4.228;2023-02-19T16:09:27;1.67;;;1.58;;
5014;SDS011;2526;51.060;4.228;2023-02-19T16:11:53;4.93;;;2.05;;
5014;SDS011;2526;51.060;4.228;2023-02-19T16:14:26;3.90;;;2.72;;
5014;SDS011;2526;51.060;4.228;2023-02-19T16:17:03;3.60;;;2.15;;
5014;SDS011;2526;51.060;4.228;2023-02-19T16:19:33;10.88;;;1.50;;
5014;SDS011;2526;51.060;4.228;2023-02-19T16:22:01;2.92;;;1.92;;
5014;SDS011;2526;51.060;4.228;2023-02-19T16:24:27;3.38;;;1.90;;
5014;SDS011;2526;51.060;4.228;2023-02-19T16:26:54;4.40;;;1.92;;
5014;SDS011;2526;51.060;4.228;2023-02-19T16:29:21;7.28;;;3.28;;
5014;SDS011;2526;51.060;4.228;2023-02-19T16:31:51;3.53;;;2.17;;
5014;SDS011;2526;51.060;4.228;2023-02-19T16:34:22;3.80;;;1.90;;
5014;SDS011;2526;51.060;4.228;2023-02-19T16:36:50;16.55;;;2.55;;
5014;SDS011;2526;51.060;4.228;2023-02-19T16:39:16;4.38;;;1.73;;
5014;SDS011;2526;51.060;4.228;2023-02-19T16:46:49;4.95;;;2.25;;
5014;SDS011;2526;51.060;4.228;2023-02-19T16:49:15;3.92;;;2.30;;
5014;SDS011;2526;51.060;4.228;2023-02-19T16:51:40;3.25;;;1.33;;
5014;SDS011;2526;51.060;4.228;2023-02-19T16:54:06;4.40;;;2.33;;
5014;SDS011;2526;51.060;4.228;2023-02-19T16:56:31;2.22;;;1.75;;
5014;SDS011;2526;51.060;4.228;2023-02-19T16:58:57;3.08;;;2.22;;
5014;SDS011;2526;51.060;4.228;2023-02-19T17:01:22;3.53;;;2.30;;
5014;SDS011;2526;51.060;4.228;2023-02-19T17:03:48;7.78;;;2.33;;
5014;SDS011;2526;51.060;4.228;2023-02-19T17:06:14;5.50;;;3.15;;
5014;SDS011;2526;51.060;4.228;2023-02-19T17:08:40;8.00;;;2.00;;
5014;SDS011;2526;51.060;4.228;2023-02-19T17:11:11;4.20;;;1.98;;
5014;SDS011;2526;51.060;4.228;2023-02-19T17:13:36;5.65;;;2.22;;
5014;SDS011;2526;51.060;4.228;2023-02-19T17:16:02;6.57;;;3.58;;
5014;SDS011;2526;51.060;4.228;2023-02-19T17:18:28;1.85;;;1.75;;
5014;SDS011;2526;51.060;4.228;2023-02-19T17:23:25;2.83;;;1.92;;
5014;SDS011;2526;51.060;4.228;2023-02-19T17:25:50;3.15;;;2.10;;
5014;SDS011;2526;51.060;4.228;2023-02-19T17:28:16;7.65;;;1.80;;
5014;SDS011;2526;51.060;4.228;2023-02-19T17:30:41;2.25;;;1.95;;
5014;SDS011;2526;51.060;4.228;2023-02-19T17:33:07;6.72;;;3.03;;
5014;SDS011;2526;51.060;4.228;2023-02-19T17:35:32;10.00;;;3.25;;
5014;SDS011;2526;51.060;4.228;2023-02-19T17:37:58;3.90;;;2.45;;
5014;SDS011;2526;51.060;4.228;2023-02-19T17:40:30;3.58;;;2.53;;
5014;SDS011;2526;51.060;4.228;2023-02-19T17:42:56;6.18;;;3.00;;
5014;SDS011;2526;51.060;4.228;2023-02-19T17:45:22;4.13;;;2.28;;
5014;SDS011;2526;51.060;4.228;2023-02-19T17:47:48;6.32;;;3.33;;
5014;SDS011;2526;51.060;4.228;2023-02-19T17:50:14;3.20;;;2.00;;